createdAt,value
2019-02-23T00:01:07.899Z,5.30
2019-02-23T00:05:18.729Z,4.70
2019-02-23T00:09:28.020Z,5.17
2019-02-23T00:13:37.350Z,5.00
2019-02-23T00:17:46.823Z,4.60
2019-02-23T00:21:56.190Z,5.20
2019-02-23T00:26:05.941Z,4.77
2019-02-23T00:30:14.310Z,5.13
2019-02-23T00:34:23.871Z,5.00
2019-02-23T00:38:33.109Z,4.50
2019-02-23T00:42:43.035Z,5.00
2019-02-23T00:46:53.426Z,4.80
2019-02-23T00:51:02.916Z,4.60
2019-02-23T00:55:12.555Z,5.03
2019-02-23T00:59:22.417Z,4.17
2019-02-23T01:03:31.779Z,4.50
2019-02-23T01:07:41.439Z,4.43
2019-02-23T01:11:50.733Z,4.37
2019-02-23T01:16:00.278Z,4.53
2019-02-23T01:20:10.754Z,4.90
2019-02-23T01:24:20.589Z,3.90
2019-02-23T01:28:30.319Z,4.70
2019-02-23T01:32:40.319Z,4.67
2019-02-23T01:36:50.237Z,4.67
2019-02-23T01:40:59.889Z,5.03
2019-02-23T01:45:11.067Z,4.20
2019-02-23T01:49:20.363Z,4.03
2019-02-23T01:53:29.677Z,4.80
2019-02-23T01:57:39.249Z,4.67
2019-02-23T02:01:48.717Z,4.40
2019-02-23T02:05:58.492Z,4.03
2019-02-23T02:10:08.714Z,4.83
2019-02-23T02:14:18.179Z,4.47
2019-02-23T02:18:27.518Z,4.93
2019-02-23T02:22:37.151Z,5.07
2019-02-23T02:26:46.629Z,4.97
2019-02-23T02:30:56.266Z,4.30
2019-02-23T02:35:05.906Z,4.70
2019-02-23T02:39:19.570Z,4.60
2019-02-23T02:43:28.820Z,5.10
2019-02-23T02:47:39.511Z,5.10
2019-02-23T02:51:48.911Z,4.33
2019-02-23T02:55:58.440Z,4.20
2019-02-23T03:00:09.772Z,4.90
2019-02-23T03:04:19.218Z,3.70
2019-02-23T03:08:30.186Z,4.00
2019-02-23T03:12:39.666Z,5.80
2019-02-23T03:16:49.383Z,4.83
2019-02-23T03:20:59.489Z,5.20
2019-02-23T03:25:09.561Z,5.17
2019-02-23T03:29:19.010Z,5.00
2019-02-23T03:33:28.512Z,5.20
2019-02-23T03:37:37.906Z,4.37
2019-02-23T03:41:47.634Z,5.07
2019-02-23T03:45:56.928Z,5.60
2019-02-23T03:50:06.723Z,5.13
2019-02-23T03:54:16.098Z,6.10
2019-02-23T03:58:25.641Z,5.70
2019-02-23T04:02:35.116Z,5.90
2019-02-23T04:06:44.793Z,6.20
2019-02-23T04:10:54.138Z,4.90
2019-02-23T04:15:03.868Z,6.10
2019-02-23T04:19:13.286Z,6.60
2019-02-23T04:23:22.964Z,7.20
2019-02-23T04:27:32.170Z,8.13
2019-02-23T04:31:41.847Z,7.30
2019-02-23T04:35:51.615Z,7.57
2019-02-23T04:40:01.225Z,7.03
2019-02-23T04:44:10.784Z,7.63
2019-02-23T04:48:20.484Z,7.57
2019-02-23T04:52:30.357Z,7.37
2019-02-23T04:56:39.823Z,7.07
2019-02-23T05:00:48.837Z,6.93
2019-02-23T05:04:58.303Z,6.43
2019-02-23T05:09:08.471Z,6.90
2019-02-23T05:13:18.128Z,7.10
2019-02-23T05:17:27.578Z,6.33
2019-02-23T05:21:40.806Z,6.53
2019-02-23T05:25:50.815Z,6.97
2019-02-23T05:30:00.725Z,6.50
2019-02-23T05:34:10.381Z,6.47
2019-02-23T05:38:20.717Z,6.40
2019-02-23T05:42:30.156Z,6.10
2019-02-23T05:46:39.469Z,6.00
2019-02-23T05:50:49.219Z,5.90
2019-02-23T05:54:58.661Z,5.70
2019-02-23T05:59:08.009Z,6.57
2019-02-23T06:03:17.844Z,5.77
2019-02-23T06:07:27.341Z,6.70
2019-02-23T06:11:36.719Z,6.77
2019-02-23T06:15:46.162Z,5.93
2019-02-23T06:19:55.718Z,5.77
2019-02-23T06:24:04.988Z,5.50
2019-02-23T06:28:14.377Z,6.40
2019-02-23T06:32:24.443Z,5.40
2019-02-23T06:36:33.920Z,6.00
2019-02-23T06:40:43.211Z,6.13
2019-02-23T06:44:53.112Z,6.23
2019-02-23T06:49:02.589Z,5.17
2019-02-23T06:53:12.194Z,5.30
2019-02-23T06:57:21.858Z,5.33
2019-02-23T07:01:31.301Z,5.80
2019-02-23T07:05:40.585Z,5.17
2019-02-23T07:09:50.001Z,5.40
2019-02-23T07:13:59.261Z,5.70
2019-02-23T07:18:09.649Z,5.93
2019-02-23T07:22:19.612Z,5.93
2019-02-23T07:26:29.262Z,5.43
2019-02-23T07:30:38.734Z,5.30
2019-02-23T07:34:48.311Z,4.73
2019-02-23T07:38:57.551Z,5.20
2019-02-23T07:43:06.951Z,5.23
2019-02-23T07:47:16.494Z,5.53
2019-02-23T07:51:26.091Z,5.93
2019-02-23T07:55:35.694Z,4.80
2019-02-23T07:59:45.582Z,5.57
2019-02-23T08:03:54.870Z,5.33
2019-02-23T08:08:04.950Z,4.70
2019-02-23T08:12:14.511Z,5.30
2019-02-23T08:16:25.079Z,4.97
2019-02-23T08:20:35.419Z,5.00
2019-02-23T08:24:44.785Z,5.17
2019-02-23T08:28:54.420Z,4.50
2019-02-23T08:33:03.794Z,5.30
2019-02-23T08:37:15.085Z,5.17
2019-02-23T08:41:25.569Z,4.17
2019-02-23T08:45:34.929Z,5.33
2019-02-23T08:49:44.296Z,5.67
2019-02-23T08:53:53.438Z,5.77
2019-02-23T08:58:03.233Z,5.17
2019-02-23T09:02:12.575Z,5.50
2019-02-23T09:06:22.162Z,5.30
2019-02-23T09:10:31.791Z,4.90
2019-02-23T09:14:42.356Z,4.80
2019-02-23T09:18:51.873Z,4.93
2019-02-23T09:23:01.515Z,5.13
2019-02-23T09:27:10.884Z,4.50
2019-02-23T09:31:20.995Z,5.60
2019-02-23T09:35:30.537Z,5.50
2019-02-23T09:39:40.251Z,4.90
2019-02-23T09:43:49.615Z,5.10
2019-02-23T09:47:59.156Z,4.63
2019-02-23T09:52:08.445Z,5.13
2019-02-23T09:56:18.051Z,6.10
2019-02-23T10:00:27.656Z,4.77
2019-02-23T10:04:37.251Z,5.10
2019-02-23T10:08:46.605Z,4.53
2019-02-23T10:12:56.016Z,5.57
2019-02-23T10:17:05.566Z,5.27
2019-02-23T10:21:15.059Z,5.13
2019-02-23T10:25:24.584Z,5.23
2019-02-23T10:29:33.891Z,4.80
2019-02-23T10:33:47.629Z,5.43
2019-02-23T10:37:54.431Z,4.53
2019-02-23T10:42:03.979Z,5.10
2019-02-23T10:46:15.587Z,4.80
2019-02-23T10:50:25.324Z,5.03
2019-02-23T10:54:34.591Z,5.10
2019-02-23T10:58:44.056Z,6.10
2019-02-23T11:02:53.534Z,5.00
2019-02-23T11:07:02.961Z,4.90
2019-02-23T11:11:12.263Z,4.97
2019-02-23T11:15:21.972Z,5.40
2019-02-23T11:19:31.315Z,5.20
2019-02-23T11:23:44.385Z,5.63
2019-02-23T11:27:52.209Z,5.43
2019-02-23T11:32:01.516Z,4.70
2019-02-23T11:36:11.305Z,5.73
2019-02-23T11:40:20.595Z,5.23
2019-02-23T11:44:30.403Z,5.30
2019-02-23T11:48:39.777Z,5.13
2019-02-23T11:52:49.659Z,4.60
2019-02-23T11:56:59.088Z,5.60
2019-02-23T12:01:08.614Z,29.60
2019-02-23T12:05:17.789Z,23.27
2019-02-23T12:09:27.578Z,29.43
2019-02-23T12:13:36.886Z,17.40
2019-02-23T12:17:46.489Z,10.83
2019-02-23T12:21:55.682Z,11.07
2019-02-23T12:26:05.377Z,9.53
2019-02-23T12:30:14.882Z,9.23
2019-02-23T12:34:24.424Z,10.00
2019-02-23T12:38:33.666Z,8.80
2019-02-23T12:42:43.417Z,8.20
2019-02-23T12:46:52.855Z,6.93
2019-02-23T12:51:02.589Z,7.63
2019-02-23T12:55:12.429Z,8.00
2019-02-23T12:59:22.200Z,10.80
2019-02-23T13:03:31.636Z,6.80
2019-02-23T13:07:41.292Z,8.30
2019-02-23T13:12:00.594Z,8.50
2019-02-23T13:16:37.267Z,8.43
2019-02-23T13:21:32.916Z,8.93
2019-02-23T13:26:16.193Z,8.90
2019-02-23T13:30:50.367Z,11.83
2019-02-23T13:35:32.805Z,9.90
2019-02-23T13:40:27.888Z,9.30
2019-02-23T13:45:04.892Z,9.00
2019-02-23T13:49:56.453Z,10.17
2019-02-23T13:54:43.156Z,10.10
2019-02-23T13:59:37.915Z,14.67
2019-02-23T14:04:19.914Z,13.50
2019-02-23T14:08:54.703Z,12.00
2019-02-23T14:13:35.586Z,11.70
2019-02-23T14:18:20.525Z,15.70
2019-02-23T14:23:13.573Z,11.70
2019-02-23T14:27:59.515Z,11.93
2019-02-23T14:32:47.538Z,12.50
2019-02-23T14:37:13.792Z,11.97
2019-02-23T14:42:08.231Z,14.80
2019-02-23T14:46:56.712Z,13.77
2019-02-23T14:51:40.137Z,10.70
2019-02-23T14:56:16.855Z,11.23
2019-02-23T15:00:49.457Z,8.73
2019-02-23T15:05:38.949Z,10.90
2019-02-23T15:10:24.027Z,11.73
2019-02-23T15:15:04.041Z,11.50
2019-02-23T15:19:49.537Z,10.00
2019-02-23T15:24:35.607Z,10.50
2019-02-23T15:29:39.411Z,13.97
2019-02-23T15:34:14.001Z,13.37
2019-02-23T15:38:52.757Z,12.33
2019-02-23T15:43:46.295Z,11.87
2019-02-23T15:48:16.716Z,10.37
2019-02-23T15:52:26.073Z,11.07
2019-02-23T15:56:35.708Z,10.73
2019-02-23T16:00:44.968Z,9.67
2019-02-23T16:04:56.386Z,9.60
2019-02-23T16:09:06.188Z,10.10
2019-02-23T16:13:16.996Z,8.10
2019-02-23T16:17:26.265Z,8.07
2019-02-23T16:21:35.641Z,8.87
2019-02-23T16:25:44.980Z,7.60
2019-02-23T16:29:53.861Z,8.17
2019-02-23T16:34:03.540Z,7.67
2019-02-23T16:38:13.042Z,7.70
2019-02-23T16:42:23.108Z,7.23
2019-02-23T16:46:33.505Z,7.90
2019-02-23T16:50:43.064Z,8.70
2019-02-23T16:54:52.385Z,7.97
2019-02-23T16:59:01.880Z,7.17
2019-02-23T17:03:11.642Z,8.60
2019-02-23T17:07:21.048Z,9.30
2019-02-23T17:11:30.746Z,8.13
2019-02-23T17:15:40.098Z,8.17
2019-02-23T17:19:49.743Z,8.40
2019-02-23T17:23:59.109Z,8.37
2019-02-23T17:28:08.975Z,8.60
2019-02-23T17:32:18.230Z,7.63
2019-02-23T17:36:27.733Z,7.93
2019-02-23T17:40:36.978Z,8.70
2019-02-23T17:44:46.506Z,8.43
2019-02-23T17:48:55.718Z,7.33
2019-02-23T17:53:04.908Z,7.73
2019-02-23T17:57:14.228Z,7.50
2019-02-23T18:01:25.416Z,7.70
2019-02-23T18:05:34.487Z,6.87
2019-02-23T18:09:44.078Z,7.80
2019-02-23T18:13:53.469Z,7.90
2019-02-23T18:18:04.120Z,7.30
2019-02-23T18:22:13.663Z,7.40
2019-02-23T18:26:23.348Z,6.30
2019-02-23T18:30:32.753Z,8.30
2019-02-23T18:34:42.235Z,6.60
2019-02-23T18:38:51.638Z,9.10
2019-02-23T18:43:03.024Z,6.37
2019-02-23T18:47:12.716Z,9.67
2019-02-23T18:51:22.068Z,6.30
2019-02-23T18:55:31.285Z,5.40
2019-02-23T18:59:41.164Z,5.00
2019-02-23T19:03:50.520Z,5.10
2019-02-23T19:07:59.947Z,5.60
2019-02-23T19:12:09.765Z,5.07
2019-02-23T19:16:19.365Z,4.50
2019-02-23T19:20:29.060Z,4.80
2019-02-23T19:24:38.770Z,4.77
2019-02-23T19:28:48.150Z,5.17
2019-02-23T19:32:57.530Z,5.20
2019-02-23T19:37:06.840Z,4.00
2019-02-23T19:41:16.354Z,4.40
2019-02-23T19:45:25.806Z,4.77
2019-02-23T19:49:35.161Z,4.20
2019-02-23T19:53:46.065Z,4.10
2019-02-23T19:57:55.561Z,3.60
2019-02-23T20:02:04.909Z,4.17
2019-02-23T20:06:14.335Z,4.70
2019-02-23T20:10:23.935Z,3.97
2019-02-23T20:14:33.497Z,4.57
2019-02-23T20:18:43.432Z,4.33
2019-02-23T20:22:53.147Z,3.43
2019-02-23T20:27:02.790Z,3.80
2019-02-23T20:31:12.468Z,3.00
2019-02-23T20:35:21.856Z,3.57
2019-02-23T20:39:31.212Z,3.77
2019-02-23T20:43:40.828Z,4.20
2019-02-23T20:47:50.456Z,4.80
2019-02-23T20:52:00.047Z,5.10
2019-02-23T20:56:09.530Z,3.77
2019-02-23T21:00:19.340Z,4.30
2019-02-23T21:04:29.305Z,4.47
2019-02-23T21:08:39.734Z,3.67
2019-02-23T21:12:50.582Z,3.80
2019-02-23T21:17:00.046Z,3.53
2019-02-23T21:21:09.626Z,2.90
2019-02-23T21:25:19.018Z,3.27
2019-02-23T21:29:29.660Z,3.40
2019-02-23T21:33:39.399Z,3.40
2019-02-23T21:37:48.750Z,3.50
2019-02-23T21:41:59.007Z,2.90
2019-02-23T21:46:08.382Z,2.80
2019-02-23T21:50:17.816Z,2.90
2019-02-23T21:54:27.255Z,3.50
2019-02-23T21:58:36.731Z,3.07
2019-02-23T22:02:47.173Z,2.83
2019-02-23T22:06:56.785Z,6.40
2019-02-23T22:11:06.417Z,3.40
2019-02-23T22:15:16.208Z,2.93
2019-02-23T22:19:25.979Z,15.20
2019-02-23T22:23:36.441Z,4.00
2019-02-23T22:27:45.835Z,7.67
2019-02-23T22:31:55.318Z,2.00
2019-02-23T22:36:04.755Z,2.70
2019-02-23T22:40:14.336Z,2.53
2019-02-23T22:44:23.992Z,2.50
2019-02-23T22:48:33.746Z,2.60
2019-02-23T22:52:43.173Z,2.50
2019-02-23T22:56:53.036Z,2.10
2019-02-23T23:01:06.493Z,2.20
2019-02-23T23:05:16.427Z,2.37
2019-02-23T23:09:25.685Z,2.53
2019-02-23T23:13:35.347Z,1.93
2019-02-23T23:17:44.655Z,2.13
2019-02-23T23:21:54.029Z,2.20
2019-02-23T23:26:03.685Z,8.93
2019-02-23T23:30:13.502Z,3.20
2019-02-23T23:34:22.804Z,2.33
2019-02-23T23:38:32.424Z,2.70
2019-02-23T23:42:41.778Z,2.00
2019-02-23T23:46:51.175Z,2.47
2019-02-23T23:51:00.466Z,2.83
2019-02-23T23:55:11.577Z,6.20
2019-02-23T23:59:20.927Z,2.83
